Time;durP1;ratioP1;P1;durP2;ratioP2;P2;SDS_P1;SDS_P2;PMS_P1;PMS_P2;Temp;Humidity;BMP_temperature;BMP_pressure;BME280_temperature;BME280_humidity;BME280_pressure;Samples;Min_cycle;Max_cycle;Signal;HPM_P1;HPM_P2
2022/07/20 00:00:05;;;;;;;;;;;;;;;21.51;51.24;100390.06;5082375;28;20202;-68
2022/07/20 00:02:30;;;;;;;;;;;;;;;21.54;50.76;100396.88;5065065;28;20118;-68
2022/07/20 00:04:55;;;;;;;;;;;;;;;21.63;50.42;100395.56;5083863;28;19919;-67
2022/07/20 00:07:20;;;;;;;;;;;;;;;21.70;50.18;100393.66;5083811;28;19924;-68
2022/07/20 00:12:30;;;;;;;;;;;;;;;21.72;49.97;100401.53;5083160;28;19924;-67
2022/07/20 00:14:55;;;;;;;;;;;;;;;21.83;49.69;100406.22;5084650;28;19975;-68
2022/07/20 00:17:20;;;;;;;;;;;;;;;21.84;49.65;100407.88;5084053;28;19939;-68
2022/07/20 00:19:45;;;;;;;;;;;;;;;21.90;49.33;100404.31;5082605;28;19912;-68
2022/07/20 00:22:11;;;;;;;;;;;;;;;21.94;49.08;100406.34;5082268;28;19956;-68
2022/07/20 00:24:36;;;;;;;;;;;;;;;22.02;48.73;100401.72;5082055;28;20408;-68
2022/07/20 00:27:02;;;;;;;;;;;;;;;22.01;48.75;100400.09;5082216;28;19960;-67
2022/07/20 00:29:27;;;;;;;;;;;;;;;21.87;49.01;100410.97;5083892;28;19921;-68
2022/07/20 00:31:52;;;;;;;;;;;;;;;21.59;50.16;100416.75;5085001;28;19923;-68
2022/07/20 00:34:18;;;;;;;;;;;;;;;21.74;50.15;100415.63;5083338;28;19998;-68
2022/07/20 00:36:43;;;;;;;;;;;;;;;21.29;51.45;100413.81;5086476;28;19995;-68
2022/07/20 00:39:08;;;;;;;;;;;;;;;21.42;51.04;100407.53;5093234;28;19927;-68
2022/07/20 00:41:33;;;;;;;;;;;;;;;21.55;50.56;100407.44;5086468;28;19969;-68
2022/07/20 00:44:01;;;;;;;;;;;;;;;21.59;50.24;100407.84;5082665;28;19920;-68
2022/07/20 00:46:27;;;;;;;;;;;;;;;21.77;49.87;100420.56;5082254;28;20198;-67
2022/07/20 00:48:52;;;;;;;;;;;;;;;21.73;50.76;100417.47;5082124;28;20127;-68
2022/07/20 00:51:17;;;;;;;;;;;;;;;21.40;52.04;100416.88;5081900;28;19917;-67
2022/07/20 00:53:44;;;;;;;;;;;;;;;21.33;52.62;100406.13;5083432;28;19912;-68
2022/07/20 00:56:10;;;;;;;;;;;;;;;21.28;52.32;100406.78;5081236;28;19939;-68
2022/07/20 00:58:36;;;;;;;;;;;;;;;21.40;51.90;100400.72;5081748;28;19909;-68
2022/07/20 01:01:01;;;;;;;;;;;;;;;21.44;51.96;100408.16;5081411;28;19980;-67
2022/07/20 01:03:27;;;;;;;;;;;;;;;21.34;52.56;100405.91;5083585;28;19920;-68
2022/07/20 01:05:52;;;;;;;;;;;;;;;21.17;53.40;100399.34;5082970;28;19948;-68
2022/07/20 01:08:18;;;;;;;;;;;;;;;21.30;53.39;100406.56;5083540;28;19958;-68
2022/07/20 01:10:43;;;;;;;;;;;;;;;21.19;53.45;100401.84;5081389;28;19983;-68
2022/07/20 01:13:08;;;;;;;;;;;;;;;21.29;53.41;100408.44;5081604;28;19931;-68
2022/07/20 01:15:34;;;;;;;;;;;;;;;21.26;53.39;100402.66;5082066;28;19912;-68
2022/07/20 01:17:59;;;;;;;;;;;;;;;21.37;52.80;100399.28;5083135;28;20206;-68
2022/07/20 01:20:24;;;;;;;;;;;;;;;21.28;52.76;100400.56;5081551;28;19948;-68
2022/07/20 01:22:50;;;;;;;;;;;;;;;21.19;52.25;100399.97;5081576;28;20253;-67
2022/07/20 01:25:15;;;;;;;;;;;;;;;21.26;51.75;100392.72;5081953;28;19919;-67
2022/07/20 01:27:40;;;;;;;;;;;;;;;21.32;51.36;100394.53;5081664;28;19916;-68
2022/07/20 01:30:06;;;;;;;;;;;;;;;21.30;51.37;100393.09;5081708;28;19912;-68
2022/07/20 01:32:31;;;;;;;;;;;;;;;21.26;51.13;100395.41;5082957;28;19920;-68
2022/07/20 01:34:57;;;;;;;;;;;;;;;21.25;51.23;100393.75;5081570;28;19931;-67
2022/07/20 01:37:22;;;;;;;;;;;;;;;21.39;50.78;100397.19;5080398;28;19916;-68
2022/07/20 01:39:47;;;;;;;;;;;;;;;21.19;51.21;100394.59;5082143;28;19958;-68
2022/07/20 01:42:13;;;;;;;;;;;;;;;21.31;50.91;100392.06;5082076;28;20273;-67
2022/07/20 01:44:38;;;;;;;;;;;;;;;21.22;50.89;100399.56;5081234;28;19974;-67
2022/07/20 01:47:03;;;;;;;;;;;;;;;21.16;51.15;100396.88;5065184;28;19916;-68
2022/07/20 01:49:29;;;;;;;;;;;;;;;21.22;51.15;100402.25;5065720;28;19927;-68
2022/07/20 01:51:54;;;;;;;;;;;;;;;21.20;51.49;100396.22;5081734;28;19916;-68
2022/07/20 01:54:19;;;;;;;;;;;;;;;21.16;51.66;100397.72;5080880;28;19912;-68
2022/07/20 01:56:45;;;;;;;;;;;;;;;21.09;52.00;100386.16;5080765;28;19923;-68
2022/07/20 01:59:10;;;;;;;;;;;;;;;21.11;52.12;100394.00;5082595;28;19920;-68
2022/07/20 02:01:35;;;;;;;;;;;;;;;20.98;52.59;100395.72;5082105;28;19924;-68
2022/07/20 02:04:01;;;;;;;;;;;;;;;20.93;52.92;100400.09;5080683;28;19912;-68
2022/07/20 02:06:26;;;;;;;;;;;;;;;20.84;53.22;100399.50;5081349;28;19916;-67
2022/07/20 02:08:51;;;;;;;;;;;;;;;20.99;52.75;100399.25;5081128;28;20225;-67
2022/07/20 02:11:17;;;;;;;;;;;;;;;21.12;52.23;100392.97;5082882;28;19923;-68
2022/07/20 02:13:42;;;;;;;;;;;;;;;21.02;52.29;100394.25;5066404;28;19931;-68
2022/07/20 02:16:17;;;;;;;;;;;;;;;21.18;51.46;100395.63;5083450;28;19925;-68
2022/07/20 02:18:44;;;;;;;;;;;;;;;21.04;51.83;100400.25;5085077;28;19912;-68
2022/07/20 02:21:09;;;;;;;;;;;;;;;21.00;51.79;100399.03;5085732;28;19916;-68
2022/07/20 02:23:34;;;;;;;;;;;;;;;20.92;52.54;100401.13;5066665;28;19962;-68
2022/07/20 02:26:00;;;;;;;;;;;;;;;20.95;52.39;100396.16;5085281;28;19916;-68
2022/07/20 02:28:25;;;;;;;;;;;;;;;21.00;52.31;100393.66;5085184;28;20106;-68
2022/07/20 02:30:50;;;;;;;;;;;;;;;20.95;52.50;100389.94;5085175;28;20174;-68
2022/07/20 02:33:16;;;;;;;;;;;;;;;21.06;52.24;100394.66;5097335;28;19916;-68
2022/07/20 02:35:41;;;;;;;;;;;;;;;21.11;52.44;100389.44;5083976;28;19912;-68
2022/07/20 02:38:06;;;;;;;;;;;;;;;20.98;52.85;100384.13;5101491;28;19920;-68
2022/07/20 02:40:31;;;;;;;;;;;;;;;21.06;52.70;100386.56;5086115;28;20110;-68
2022/07/20 02:42:57;;;;;;;;;;;;;;;21.11;52.23;100386.75;5099734;28;19912;-67
2022/07/20 02:45:22;;;;;;;;;;;;;;;20.86;52.64;100389.34;5086317;28;19985;-68
2022/07/20 02:47:47;;;;;;;;;;;;;;;20.49;53.95;100387.38;5085836;28;19919;-68
2022/07/20 02:50:13;;;;;;;;;;;;;;;20.75;53.56;100394.53;5094420;28;20143;-68
2022/07/20 02:52:39;;;;;;;;;;;;;;;20.63;53.83;100395.19;5090722;28;19920;-68
2022/07/20 02:55:05;;;;;;;;;;;;;;;20.43;54.45;100398.97;5085490;28;19943;-68
2022/07/20 02:57:30;;;;;;;;;;;;;;;20.44;54.51;100395.25;5085707;28;19920;-68
2022/07/20 02:59:56;;;;;;;;;;;;;;;20.39;54.62;100398.56;5085473;28;19916;-68
2022/07/20 03:02:21;;;;;;;;;;;;;;;20.14;55.73;100401.06;5085608;28;19939;-68
2022/07/20 03:04:46;;;;;;;;;;;;;;;19.93;56.71;100399.44;5085639;28;19918;-67
2022/07/20 03:07:11;;;;;;;;;;;;;;;19.98;56.71;100396.13;5093279;28;20091;-68
2022/07/20 03:09:37;;;;;;;;;;;;;;;20.13;56.32;100401.28;5080983;28;19912;-68
2022/07/20 03:12:02;;;;;;;;;;;;;;;20.17;56.21;100402.50;5085606;28;20002;-68
2022/07/20 03:14:27;;;;;;;;;;;;;;;20.25;56.41;100403.13;5085396;28;19912;-68
2022/07/20 03:16:53;;;;;;;;;;;;;;;20.31;56.26;100402.28;5085112;28;19936;-67
2022/07/20 03:19:18;;;;;;;;;;;;;;;20.17;56.94;100405.19;5085432;28;19970;-68
2022/07/20 03:21:43;;;;;;;;;;;;;;;20.17;57.08;100403.34;5084965;28;19979;-68
2022/07/20 03:24:08;;;;;;;;;;;;;;;19.93;57.56;100401.28;5084899;28;19912;-68
2022/07/20 03:26:34;;;;;;;;;;;;;;;20.15;57.00;100399.22;5083967;28;19927;-67
2022/07/20 03:28:59;;;;;;;;;;;;;;;19.99;57.19;100405.84;5083697;28;19957;-68
2022/07/20 03:31:24;;;;;;;;;;;;;;;19.79;58.10;100403.16;5084439;28;19917;-68
2022/07/20 03:33:49;;;;;;;;;;;;;;;19.76;58.01;100396.28;5083916;28;19912;-68
2022/07/20 03:36:15;;;;;;;;;;;;;;;20.16;57.02;100395.47;5083210;28;20141;-67
2022/07/20 03:38:40;;;;;;;;;;;;;;;20.03;57.03;100393.63;5083763;28;20201;-67
2022/07/20 03:41:05;;;;;;;;;;;;;;;19.84;57.38;100394.47;5084100;28;19920;-68
2022/07/20 03:43:31;;;;;;;;;;;;;;;20.08;57.06;100393.84;5082595;28;19919;-68
2022/07/20 03:45:56;;;;;;;;;;;;;;;20.08;56.71;100391.16;5086073;28;20198;-68
2022/07/20 03:48:21;;;;;;;;;;;;;;;19.98;57.23;100396.94;5083303;28;19908;-68
2022/07/20 03:50:46;;;;;;;;;;;;;;;19.97;57.29;100397.16;5082344;28;19946;-68
2022/07/20 03:53:12;;;;;;;;;;;;;;;20.05;57.22;100405.84;5085509;28;19927;-68
2022/07/20 03:55:37;;;;;;;;;;;;;;;20.05;56.86;100410.38;5085105;28;20114;-67
2022/07/20 03:58:03;;;;;;;;;;;;;;;19.94;57.90;100406.47;5082564;28;19939;-68
2022/07/20 04:00:28;;;;;;;;;;;;;;;20.19;57.17;100403.97;5083895;28;19919;-68
2022/07/20 04:02:53;;;;;;;;;;;;;;;20.42;56.34;100410.78;5081968;28;19983;-68
2022/07/20 04:05:19;;;;;;;;;;;;;;;20.55;56.32;100413.44;5083451;28;19912;-68
2022/07/20 04:07:44;;;;;;;;;;;;;;;20.23;57.15;100415.13;5083006;28;19958;-67
2022/07/20 04:10:09;;;;;;;;;;;;;;;20.09;57.50;100412.44;5082415;28;19912;-68
2022/07/20 04:12:34;;;;;;;;;;;;;;;20.36;56.45;100418.63;5066604;28;19944;-67
2022/07/20 04:15:00;;;;;;;;;;;;;;;20.23;57.33;100420.50;5082250;28;19912;-68
2022/07/20 04:17:25;;;;;;;;;;;;;;;20.36;56.14;100417.78;5082939;28;20090;-67
2022/07/20 04:19:50;;;;;;;;;;;;;;;20.33;56.11;100416.34;5084569;28;20165;-68
2022/07/20 04:22:16;;;;;;;;;;;;;;;20.27;56.39;100419.88;5064930;28;19917;-68
2022/07/20 04:24:41;;;;;;;;;;;;;;;20.42;55.86;100416.16;5081653;28;19920;-68
2022/07/20 04:27:06;;;;;;;;;;;;;;;20.44;55.57;100414.91;5083770;28;19924;-68
2022/07/20 04:29:32;;;;;;;;;;;;;;;20.65;55.08;100421.91;5083326;28;19921;-68
2022/07/20 04:31:58;;;;;;;;;;;;;;;20.78;54.71;100429.09;5090543;28;19915;-68
2022/07/20 04:34:23;;;;;;;;;;;;;;;21.13;53.86;100427.75;5101533;28;20197;-68
2022/07/20 04:36:49;;;;;;;;;;;;;;;21.35;53.09;100422.91;5083832;28;19924;-68
2022/07/20 04:39:14;;;;;;;;;;;;;;;21.39;53.19;100420.59;5083428;28;19966;-68
2022/07/20 04:41:39;;;;;;;;;;;;;;;21.60;52.65;100423.78;5095513;28;20041;-68
2022/07/20 04:44:05;;;;;;;;;;;;;;;21.77;52.40;100428.66;5102558;28;19967;-68
2022/07/20 04:46:30;;;;;;;;;;;;;;;22.02;51.57;100431.41;5088448;28;19923;-68
2022/07/20 04:48:56;;;;;;;;;;;;;;;21.94;51.35;100424.41;5083550;28;19932;-68
2022/07/20 04:51:21;;;;;;;;;;;;;;;21.97;51.11;100422.09;5081787;28;19991;-68
2022/07/20 04:53:46;;;;;;;;;;;;;;;21.96;51.34;100427.72;5065922;28;19935;-68
2022/07/20 04:56:12;;;;;;;;;;;;;;;22.16;50.88;100431.09;5082244;28;20125;-68
2022/07/20 04:58:37;;;;;;;;;;;;;;;22.06;50.09;100427.25;5081829;28;19919;-68
2022/07/20 05:01:02;;;;;;;;;;;;;;;22.05;50.19;100420.19;5082262;28;19931;-68
2022/07/20 05:03:28;;;;;;;;;;;;;;;22.30;50.26;100415.59;5082137;28;20198;-68
2022/07/20 05:05:53;;;;;;;;;;;;;;;22.42;50.31;100415.69;5083183;28;19954;-68
2022/07/20 05:08:18;;;;;;;;;;;;;;;22.90;48.98;100405.88;5064081;28;19947;-68
2022/07/20 05:10:44;;;;;;;;;;;;;;;23.21;47.96;100407.53;5081539;28;19978;-68
2022/07/20 05:13:09;;;;;;;;;;;;;;;23.59;47.03;100411.00;5081880;28;20056;-68
2022/07/20 05:15:34;;;;;;;;;;;;;;;23.41;46.46;100409.97;5084044;28;19912;-68
2022/07/20 05:18:00;;;;;;;;;;;;;;;23.60;46.33;100416.16;5083924;28;19916;-68
2022/07/20 05:20:25;;;;;;;;;;;;;;;23.31;46.45;100416.97;5063981;28;19913;-68
2022/07/20 05:22:50;;;;;;;;;;;;;;;23.37;46.80;100416.88;5082226;28;19959;-68
2022/07/20 05:25:16;;;;;;;;;;;;;;;23.53;46.06;100412.72;5080950;28;19913;-68
2022/07/20 05:27:41;;;;;;;;;;;;;;;23.87;45.24;100417.41;5082536;28;19931;-68
2022/07/20 05:30:07;;;;;;;;;;;;;;;24.04;45.44;100416.75;5081349;28;20202;-68
2022/07/20 05:32:32;;;;;;;;;;;;;;;24.14;44.96;100417.81;5081433;28;19916;-68
2022/07/20 05:34:57;;;;;;;;;;;;;;;24.62;44.22;100419.47;5081324;28;19954;-68
2022/07/20 05:37:22;;;;;;;;;;;;;;;25.04;42.42;100419.31;5085416;28;20133;-68
2022/07/20 05:39:48;;;;;;;;;;;;;;;25.19;41.65;100416.06;5082697;28;19974;-68
2022/07/20 05:42:13;;;;;;;;;;;;;;;24.92;42.41;100421.16;5081745;28;19916;-68
2022/07/20 05:44:39;;;;;;;;;;;;;;;25.30;41.83;100415.22;5080813;28;20071;-68
2022/07/20 05:47:06;;;;;;;;;;;;;;;25.54;41.25;100419.44;5081542;28;20105;-68
2022/07/20 05:49:32;;;;;;;;;;;;;;;25.96;40.16;100419.94;5082306;28;20206;-68
2022/07/20 05:51:57;;;;;;;;;;;;;;;25.89;40.49;100413.84;5080049;28;19923;-68
2022/07/20 05:54:23;;;;;;;;;;;;;;;25.81;39.95;100413.44;5082255;28;19927;-68
2022/07/20 05:56:48;;;;;;;;;;;;;;;26.06;39.53;100416.59;5081253;28;19917;-68
2022/07/20 05:59:13;;;;;;;;;;;;;;;26.38;38.04;100408.69;5081974;28;19912;-68
2022/07/20 06:01:43;;;;;;;;;;;;;;;26.47;37.37;100415.31;5082938;28;20137;-68
2022/07/20 06:04:09;;;;;;;;;;;;;;;26.38;37.83;100417.66;5080580;28;19952;-68
2022/07/20 06:06:34;;;;;;;;;;;;;;;26.73;37.60;100417.31;5082571;28;20102;-68
2022/07/20 06:08:59;;;;;;;;;;;;;;;26.60;37.40;100414.16;5080829;28;20505;-68
2022/07/20 06:11:25;;;;;;;;;;;;;;;26.66;37.09;100408.53;5081404;28;19958;-68
2022/07/20 06:13:50;;;;;;;;;;;;;;;26.89;36.50;100407.47;5080802;28;19989;-68
2022/07/20 06:16:15;;;;;;;;;;;;;;;26.98;36.85;100413.28;5081028;28;19940;-68
2022/07/20 06:18:40;;;;;;;;;;;;;;;26.80;36.67;100416.31;5082358;28;20190;-68
2022/07/20 06:21:06;;;;;;;;;;;;;;;26.97;36.33;100414.34;5080504;28;19916;-68
2022/07/20 06:23:31;;;;;;;;;;;;;;;26.93;36.94;100407.78;5081122;28;19911;-68
2022/07/20 06:25:56;;;;;;;;;;;;;;;27.22;36.17;100416.59;5062295;28;19924;-68
2022/07/20 06:28:22;;;;;;;;;;;;;;;27.54;36.04;100417.47;5080797;28;19908;-68
2022/07/20 06:30:47;;;;;;;;;;;;;;;27.47;36.05;100411.41;5080219;28;19912;-68
2022/07/20 06:33:12;;;;;;;;;;;;;;;27.68;35.20;100409.72;5082140;28;20150;-69
2022/07/20 06:35:37;;;;;;;;;;;;;;;27.79;34.89;100416.09;5080579;28;19918;-68
2022/07/20 06:38:03;;;;;;;;;;;;;;;28.03;34.58;100406.47;5081478;28;19923;-69
2022/07/20 06:40:28;;;;;;;;;;;;;;;28.14;34.63;100407.41;5081458;28;19927;-68
2022/07/20 06:42:53;;;;;;;;;;;;;;;28.02;34.11;100413.00;5080074;28;20149;-68
2022/07/20 06:45:19;;;;;;;;;;;;;;;28.37;34.13;100408.94;5063323;28;19919;-68
2022/07/20 06:47:44;;;;;;;;;;;;;;;28.42;33.37;100403.53;5063196;28;19916;-68
2022/07/20 06:50:09;;;;;;;;;;;;;;;28.99;33.26;100403.53;5082216;28;20102;-69
2022/07/20 06:52:34;;;;;;;;;;;;;;;29.26;32.48;100395.19;5080428;28;19948;-68
2022/07/20 06:55:00;;;;;;;;;;;;;;;29.15;31.89;100397.06;5079741;28;19912;-68
2022/07/20 06:57:25;;;;;;;;;;;;;;;29.35;32.20;100396.31;5082362;28;19979;-68
2022/07/20 06:59:51;;;;;;;;;;;;;;;29.49;31.89;100389.25;5080125;28;19950;-68
2022/07/20 07:02:16;;;;;;;;;;;;;;;29.66;31.00;100388.19;5081050;28;20176;-69
2022/07/20 07:04:42;;;;;;;;;;;;;;;29.74;30.82;100388.44;5084588;28;19919;-67
2022/07/20 07:07:07;;;;;;;;;;;;;;;29.68;31.25;100391.44;5085376;28;20090;-67
2022/07/20 07:09:32;;;;;;;;;;;;;;;29.48;31.81;100386.81;5083159;28;19920;-67
2022/07/20 07:11:58;;;;;;;;;;;;;;;29.66;31.55;100386.25;5083593;28;20206;-67
2022/07/20 07:14:25;;;;;;;;;;;;;;;30.25;30.58;100390.38;5085288;28;20255;-67
2022/07/20 07:16:50;;;;;;;;;;;;;;;30.49;30.46;100391.41;5084319;28;19916;-67
2022/07/20 07:19:15;;;;;;;;;;;;;;;30.48;30.12;100387.03;5084899;28;20119;-67
2022/07/20 07:21:41;;;;;;;;;;;;;;;30.39;29.85;100383.22;5085450;28;20103;-67
2022/07/20 07:24:06;;;;;;;;;;;;;;;30.62;29.88;100377.16;5082828;28;19976;-67
2022/07/20 07:26:31;;;;;;;;;;;;;;;30.73;29.58;100383.41;5084342;28;20206;-67
2022/07/20 07:28:57;;;;;;;;;;;;;;;31.04;29.13;100371.22;5083121;28;20248;-67
2022/07/20 07:31:22;;;;;;;;;;;;;;;30.80;29.78;100378.47;5083034;28;20144;-67
2022/07/20 07:33:47;;;;;;;;;;;;;;;31.02;29.94;100378.06;5084877;28;19931;-67
2022/07/20 07:36:13;;;;;;;;;;;;;;;30.78;30.02;100377.91;5083433;28;19920;-67
2022/07/20 07:38:38;;;;;;;;;;;;;;;31.09;29.54;100373.09;5084299;28;19982;-67
2022/07/20 07:41:04;;;;;;;;;;;;;;;30.94;29.50;100374.00;5082991;28;19912;-67
2022/07/20 07:43:29;;;;;;;;;;;;;;;30.67;29.73;100368.94;5065402;28;19983;-67
2022/07/20 07:45:55;;;;;;;;;;;;;;;30.81;29.24;100371.91;5083510;28;19987;-67
2022/07/20 07:48:20;;;;;;;;;;;;;;;31.29;28.89;100366.75;5084826;28;19928;-67
2022/07/20 07:50:45;;;;;;;;;;;;;;;31.16;28.50;100357.22;5082673;28;19951;-67
2022/07/20 07:53:11;;;;;;;;;;;;;;;31.38;28.32;100371.34;5084137;28;20033;-67
2022/07/20 07:55:38;;;;;;;;;;;;;;;31.61;28.00;100367.06;5084787;28;19912;-67
2022/07/20 07:58:03;;;;;;;;;;;;;;;31.89;28.37;100362.72;5083696;28;20144;-67
2022/07/20 08:00:29;;;;;;;;;;;;;;;31.98;27.21;100357.44;5082975;28;19971;-67
2022/07/20 08:02:54;;;;;;;;;;;;;;;32.00;26.65;100355.22;5065167;28;19912;-67
2022/07/20 08:05:20;;;;;;;;;;;;;;;32.18;26.45;100350.94;5082502;28;19909;-67
2022/07/20 08:07:45;;;;;;;;;;;;;;;32.20;26.24;100349.53;5083762;28;20111;-67
2022/07/20 08:10:10;;;;;;;;;;;;;;;31.81;26.25;100346.09;5082224;28;19919;-67
2022/07/20 08:12:37;;;;;;;;;;;;;;;31.99;26.39;100345.38;5083189;28;19954;-67
2022/07/20 08:15:04;;;;;;;;;;;;;;;32.16;25.76;100340.25;5082652;28;19919;-67
2022/07/20 08:17:29;;;;;;;;;;;;;;;32.34;25.28;100333.28;5082338;28;19954;-67
2022/07/20 08:19:54;;;;;;;;;;;;;;;32.32;26.60;100336.31;5083978;28;19924;-67
2022/07/20 08:22:19;;;;;;;;;;;;;;;32.23;25.79;100334.44;5081723;28;19932;-67
2022/07/20 08:24:45;;;;;;;;;;;;;;;32.52;24.60;100323.47;5082723;28;19912;-67
2022/07/20 08:27:10;;;;;;;;;;;;;;;32.56;23.91;100322.56;5081884;28;20221;-67
2022/07/20 08:29:36;;;;;;;;;;;;;;;32.69;24.42;100326.53;5082187;28;19912;-67
2022/07/20 08:32:01;;;;;;;;;;;;;;;33.00;24.64;100327.75;5083422;28;19938;-67
2022/07/20 08:34:26;;;;;;;;;;;;;;;33.04;23.80;100322.50;5082553;28;19908;-67
2022/07/20 08:36:51;;;;;;;;;;;;;;;33.15;23.35;100323.16;5084649;28;19923;-67
2022/07/20 08:39:17;;;;;;;;;;;;;;;33.29;22.18;100327.66;5083195;28;19994;-67
2022/07/20 08:41:43;;;;;;;;;;;;;;;33.41;22.62;100326.38;5082912;28;20111;-67
2022/07/20 08:44:08;;;;;;;;;;;;;;;33.61;22.83;100321.34;5083117;28;19923;-67
2022/07/20 08:46:34;;;;;;;;;;;;;;;33.80;22.62;100317.72;5082184;28;19999;-67
2022/07/20 08:49:00;;;;;;;;;;;;;;;34.02;21.47;100317.88;5083528;28;19920;-67
2022/07/20 08:51:25;;;;;;;;;;;;;;;34.00;21.92;100316.56;5083171;28;19913;-67
2022/07/20 08:53:50;;;;;;;;;;;;;;;33.90;21.55;100318.38;5082560;28;19931;-68
2022/07/20 08:56:15;;;;;;;;;;;;;;;34.01;22.18;100312.69;5081566;28;20495;-67
2022/07/20 08:58:41;;;;;;;;;;;;;;;34.24;21.92;100309.75;5081008;28;19919;-67
2022/07/20 09:01:06;;;;;;;;;;;;;;;34.40;21.29;100298.50;5082227;28;20181;-67
2022/07/20 09:03:32;;;;;;;;;;;;;;;34.58;21.10;100303.88;5081051;28;20189;-73
2022/07/20 09:06:02;;;;;;;;;;;;;;;34.28;21.78;100297.03;5082474;28;19957;-73
2022/07/20 09:08:27;;;;;;;;;;;;;;;34.31;21.73;100303.84;5081538;28;20199;-73
2022/07/20 09:10:53;;;;;;;;;;;;;;;34.56;21.67;100295.13;5081403;28;19992;-73
2022/07/20 09:13:19;;;;;;;;;;;;;;;34.38;20.56;100290.56;5082764;28;19919;-73
2022/07/20 09:15:49;;;;;;;;;;;;;;;34.16;22.25;100296.72;5083326;28;19916;-72
2022/07/20 09:18:17;;;;;;;;;;;;;;;34.20;20.54;100289.50;5082530;28;19912;-73
2022/07/20 09:20:44;;;;;;;;;;;;;;;33.91;21.55;100291.72;5081323;28;19916;-73
2022/07/20 09:23:11;;;;;;;;;;;;;;;34.13;21.35;100293.78;5080920;28;19971;-73
2022/07/20 09:25:36;;;;;;;;;;;;;;;34.10;21.77;100292.44;5080424;28;19927;-73
2022/07/20 09:28:02;;;;;;;;;;;;;;;34.17;21.72;100281.88;5081462;28;19991;-73
2022/07/20 09:30:27;;;;;;;;;;;;;;;34.10;21.77;100273.22;5063087;28;19912;-72
2022/07/20 09:32:55;;;;;;;;;;;;;;;33.72;22.07;100264.31;5076615;28;19915;-73
2022/07/20 09:35:22;;;;;;;;;;;;;;;33.56;21.95;100272.00;5101193;28;20124;-73
2022/07/20 09:37:48;;;;;;;;;;;;;;;33.59;22.30;100268.66;5071130;28;19916;-72
2022/07/20 09:40:13;;;;;;;;;;;;;;;33.63;23.16;100261.44;5081250;28;19919;-73
2022/07/20 09:42:39;;;;;;;;;;;;;;;33.41;23.33;100261.31;5081370;28;20217;-73
2022/07/20 09:45:37;;;;;;;;;;;;;;;33.41;22.37;100258.56;5081410;28;21447;-73
2022/07/20 09:48:02;;;;;;;;;;;;;;;33.36;22.84;100261.38;5045865;28;19965;-73
2022/07/20 09:50:32;;;;;;;;;;;;;;;33.36;22.99;100252.34;5081813;28;19920;-73
2022/07/20 09:52:57;;;;;;;;;;;;;;;32.39;23.29;100256.47;5081327;28;19916;-72
2022/07/20 09:55:24;;;;;;;;;;;;;;;32.19;24.64;100256.66;5082584;28;20103;-73
2022/07/20 09:57:53;;;;;;;;;;;;;;;31.57;24.95;100261.97;5081743;28;20012;-72
2022/07/20 10:00:19;;;;;;;;;;;;;;;31.31;25.36;100260.56;5062275;28;20102;-72
2022/07/20 10:02:48;;;;;;;;;;;;;;;31.02;25.42;100247.63;5082292;28;19931;-72
2022/07/20 10:05:16;;;;;;;;;;;;;;;31.14;24.80;100239.03;5081496;28;20296;-72
2022/07/20 10:07:43;;;;;;;;;;;;;;;31.37;25.86;100246.56;5081686;28;19920;-72
2022/07/20 10:10:09;;;;;;;;;;;;;;;31.72;23.40;100241.88;5063620;28;19919;-72
2022/07/20 10:12:34;;;;;;;;;;;;;;;31.30;23.96;100248.00;5080188;28;19916;-72
2022/07/20 10:15:00;;;;;;;;;;;;;;;31.10;24.29;100244.25;5064672;28;20217;-72
2022/07/20 10:17:25;;;;;;;;;;;;;;;30.98;24.60;100234.78;5080909;28;19935;-72
2022/07/20 10:19:51;;;;;;;;;;;;;;;31.02;24.90;100203.03;5080482;28;19912;-73
2022/07/20 10:22:16;;;;;;;;;;;;;;;31.41;24.41;100222.19;5081633;28;19923;-73
2022/07/20 10:24:43;;;;;;;;;;;;;;;31.53;24.15;100222.59;5062972;28;19912;-72
2022/07/20 10:27:08;;;;;;;;;;;;;;;31.58;25.25;100219.00;5081126;28;19917;-73
2022/07/20 10:29:41;;;;;;;;;;;;;;;31.37;25.44;100213.72;5079863;28;20217;-72
2022/07/20 10:32:10;;;;;;;;;;;;;;;31.63;25.96;100214.28;5082323;28;19925;-72
2022/07/20 10:34:35;;;;;;;;;;;;;;;31.83;25.32;100204.25;5081564;28;19912;-72
2022/07/20 10:37:19;;;;;;;;;;;;;;;31.99;25.20;100202.94;5092851;28;20259;-73
2022/07/20 10:39:46;;;;;;;;;;;;;;;31.76;24.44;100201.84;5100352;28;19912;-73
2022/07/20 10:42:23;;;;;;;;;;;;;;;31.51;24.90;100202.91;5095282;28;19916;-73
2022/07/20 10:44:49;;;;;;;;;;;;;;;31.66;25.03;100191.81;5096854;28;20118;-73
2022/07/20 10:47:32;;;;;;;;;;;;;;;31.71;25.02;100189.03;5088670;28;19912;-72
2022/07/20 10:50:02;;;;;;;;;;;;;;;31.80;25.28;100183.72;5085799;28;19912;-73
2022/07/20 10:52:29;;;;;;;;;;;;;;;31.97;25.24;100188.72;5089689;28;20178;-73
2022/07/20 10:54:54;;;;;;;;;;;;;;;32.20;25.34;100176.91;5095180;28;19920;-72
2022/07/20 10:57:20;;;;;;;;;;;;;;;32.46;23.96;100176.63;5085710;28;19913;-73
2022/07/20 10:59:45;;;;;;;;;;;;;;;32.43;24.69;100175.28;5085767;28;19939;-73
2022/07/20 11:02:12;;;;;;;;;;;;;;;32.41;24.76;100169.28;5085750;28;19912;-73
2022/07/20 11:04:43;;;;;;;;;;;;;;;32.67;23.82;100172.47;5071674;28;20067;-72
2022/07/20 11:07:26;;;;;;;;;;;;;;;32.75;24.00;100168.22;5092426;28;19912;-73
2022/07/20 11:09:51;;;;;;;;;;;;;;;32.90;24.23;100160.59;5098592;28;20190;-73
2022/07/20 11:12:23;;;;;;;;;;;;;;;32.99;23.53;100166.19;5092620;28;19950;-73
2022/07/20 11:14:52;;;;;;;;;;;;;;;32.91;23.23;100162.22;5085634;28;20101;-72
2022/07/20 11:17:17;;;;;;;;;;;;;;;32.67;23.39;100159.56;5085509;28;19944;-72
2022/07/20 11:19:42;;;;;;;;;;;;;;;32.67;24.10;100162.31;5085546;28;20136;-73
2022/07/20 11:22:09;;;;;;;;;;;;;;;32.74;24.55;100152.88;5085171;28;19924;-73
2022/07/20 11:24:34;;;;;;;;;;;;;;;33.00;23.55;100148.63;5084986;28;19919;-73
2022/07/20 11:27:11;;;;;;;;;;;;;;;32.99;23.01;100153.31;5085226;28;19920;-73
2022/07/20 11:29:44;;;;;;;;;;;;;;;32.59;23.41;100143.78;5084659;28;20140;-73
2022/07/20 11:32:10;;;;;;;;;;;;;;;32.55;23.56;100141.94;5084851;28;19917;-73
2022/07/20 11:34:42;;;;;;;;;;;;;;;32.69;24.15;100140.06;5084615;28;20643;-73
2022/07/20 11:37:07;;;;;;;;;;;;;;;32.75;24.43;100135.31;5084110;28;19923;-73
2022/07/20 11:39:33;;;;;;;;;;;;;;;32.78;23.49;100141.03;5083165;28;19936;-73
2022/07/20 11:41:58;;;;;;;;;;;;;;;32.74;23.22;100134.50;5083806;28;20113;-73
2022/07/20 11:44:26;;;;;;;;;;;;;;;32.74;23.72;100134.50;5082450;28;19913;-73
2022/07/20 11:46:51;;;;;;;;;;;;;;;32.84;24.06;100136.28;5088829;28;19962;-73
2022/07/20 11:49:17;;;;;;;;;;;;;;;32.77;24.08;100127.59;5086719;28;20010;-73
2022/07/20 11:51:49;;;;;;;;;;;;;;;32.86;23.47;100132.13;5067800;28;20214;-73
2022/07/20 11:54:19;;;;;;;;;;;;;;;32.87;23.94;100127.47;5084046;28;19920;-73
2022/07/20 11:56:44;;;;;;;;;;;;;;;32.57;24.21;100120.53;5082514;28;20122;-73
2022/07/20 11:59:10;;;;;;;;;;;;;;;32.55;24.25;100117.28;5082907;28;19919;-73
2022/07/20 12:01:36;;;;;;;;;;;;;;;32.58;24.18;100120.22;5083329;28;19916;-73
2022/07/20 12:04:08;;;;;;;;;;;;;;;32.72;24.03;100113.97;5065851;28;19912;-73
2022/07/20 12:06:36;;;;;;;;;;;;;;;32.66;24.90;100119.53;5082723;28;19920;-73
2022/07/20 12:09:11;;;;;;;;;;;;;;;32.88;23.00;100115.38;5083717;28;19916;-73
2022/07/20 12:11:54;;;;;;;;;;;;;;;32.75;22.94;100118.88;5083929;28;19924;-73
2022/07/20 12:14:40;;;;;;;;;;;;;;;32.38;23.46;100106.84;5083760;28;19912;-73
2022/07/20 12:17:19;;;;;;;;;;;;;;;32.09;24.04;100106.94;5083414;28;19930;-73
2022/07/20 12:19:45;;;;;;;;;;;;;;;31.95;24.59;100103.31;5083791;28;20222;-73
2022/07/20 12:22:15;;;;;;;;;;;;;;;32.19;24.33;100104.06;5065783;28;19975;-73
2022/07/20 12:24:55;;;;;;;;;;;;;;;32.08;24.52;100097.09;5081656;28;19991;-72
2022/07/20 12:27:22;;;;;;;;;;;;;;;32.06;24.39;100085.63;5076738;28;20257;-73
2022/07/20 12:29:47;;;;;;;;;;;;;;;32.00;24.07;100090.34;5082497;28;20237;-73
2022/07/20 12:32:15;;;;;;;;;;;;;;;31.90;24.40;100090.50;5081363;28;19917;-73